Time;durP1;ratioP1;P1;durP2;ratioP2;P2;SDS_P1;SDS_P2;PMS_P1;PMS_P2;Temp;Humidity;BMP_temperature;BMP_pressure;BME280_temperature;BME280_humidity;BME280_pressure;Samples;Min_cycle;Max_cycle;Signal;HPM_P1;HPM_P2
2023/07/10 00:01:39;;;;;;;4.68;3.22;;;25.90;57.60;;;;;;4957805;29;20035;-75
2023/07/10 00:04:15;;;;;;;4.68;3.00;;;25.90;57.60;;;;;;4941326;29;20031;-76
2023/07/10 00:06:42;;;;;;;4.32;2.90;;;25.90;57.60;;;;;;4956787;29;20039;-75
2023/07/10 00:09:07;;;;;;;4.95;3.22;;;25.90;57.60;;;;;;4940547;29;20476;-75
2023/07/10 00:11:33;;;;;;;4.65;3.10;;;25.90;57.60;;;;;;4957660;29;20053;-75
2023/07/10 00:13:59;;;;;;;4.60;3.08;;;25.90;57.70;;;;;;4957204;28;20047;-76
2023/07/10 00:16:27;;;;;;;4.60;3.00;;;25.80;57.70;;;;;;4940364;29;20036;-75
2023/07/10 00:18:54;;;;;;;5.32;3.33;;;25.80;57.80;;;;;;4957722;28;20119;-75
2023/07/10 00:21:20;;;;;;;4.57;3.15;;;25.80;57.80;;;;;;4957111;28;20059;-75
2023/07/10 00:23:46;;;;;;;4.13;3.00;;;25.80;57.80;;;;;;4940028;28;20417;-75
2023/07/10 00:26:24;;;;;;;4.32;3.13;;;25.70;57.80;;;;;;4955911;29;20468;-74
2023/07/10 00:29:03;;;;;;;4.18;2.80;;;25.70;57.80;;;;;;4940018;29;20027;-75
2023/07/10 00:31:29;;;;;;;5.28;2.97;;;25.60;57.80;;;;;;4940299;29;20046;-75
2023/07/10 00:33:55;;;;;;;3.95;2.50;;;25.60;57.80;;;;;;4955962;28;20039;-75
2023/07/10 00:36:31;;;;;;;4.22;2.67;;;25.60;57.80;;;;;;4940236;28;20027;-75
2023/07/10 00:39:04;;;;;;;4.55;2.75;;;25.60;57.90;;;;;;4939612;29;20042;-75
2023/07/10 00:41:35;;;;;;;3.78;2.63;;;25.60;57.90;;;;;;4956572;29;20035;-75
2023/07/10 00:44:03;;;;;;;4.53;2.90;;;25.50;57.90;;;;;;4955564;29;20049;-76
2023/07/10 00:46:41;;;;;;;4.80;2.97;;;25.60;58.00;;;;;;4939681;29;20456;-76
2023/07/10 00:49:16;;;;;;;4.68;3.20;;;25.60;58.10;;;;;;4957068;28;20039;-76
2023/07/10 00:51:55;;;;;;;4.38;3.03;;;25.50;58.10;;;;;;4939629;29;20385;-76
2023/07/10 00:54:35;;;;;;;3.88;2.40;;;25.50;58.20;;;;;;4955409;28;20080;-76
2023/07/10 00:57:05;;;;;;;4.40;2.88;;;25.40;58.10;;;;;;4940267;29;20412;-75
2023/07/10 00:59:36;;;;;;;5.22;2.78;;;25.40;58.10;;;;;;4940298;28;20413;-76
2023/07/10 01:02:08;;;;;;;3.72;2.65;;;25.40;58.10;;;;;;4956213;28;20040;-75
2023/07/10 01:04:39;;;;;;;3.85;2.60;;;25.40;58.20;;;;;;4957336;28;20061;-75
2023/07/10 01:07:14;;;;;;;4.57;2.97;;;25.40;58.20;;;;;;4956625;28;20031;-75
2023/07/10 01:09:44;;;;;;;4.18;2.60;;;25.30;58.20;;;;;;4957111;28;20049;-74
2023/07/10 01:12:11;;;;;;;3.85;2.55;;;25.30;58.20;;;;;;4939543;29;20463;-75
2023/07/10 01:14:36;;;;;;;3.83;2.80;;;25.30;58.20;;;;;;4956681;28;20469;-74
2023/07/10 01:17:04;;;;;;;4.13;2.80;;;25.30;58.30;;;;;;4939918;28;20110;-75
2023/07/10 01:19:32;;;;;;;3.70;2.50;;;25.30;58.30;;;;;;4956406;28;20024;-75
2023/07/10 01:21:58;;;;;;;4.32;2.80;;;25.30;58.40;;;;;;4956287;28;20040;-76
2023/07/10 01:24:24;;;;;;;3.88;2.80;;;25.30;58.40;;;;;;4954604;29;20126;-75
2023/07/10 01:26:51;;;;;;;3.75;2.63;;;25.20;58.40;;;;;;4955222;29;20039;-75
2023/07/10 01:29:29;;;;;;;4.07;2.60;;;25.20;58.40;;;;;;4954833;29;20027;-75
2023/07/10 01:31:56;;;;;;;4.80;3.10;;;25.20;58.50;;;;;;4938853;28;20081;-75
2023/07/10 01:34:45;;;;;;;3.50;2.50;;;25.20;58.40;;;;;;4939385;29;20039;-76
2023/07/10 01:37:12;;;;;;;3.40;2.38;;;25.20;58.50;;;;;;4953774;28;20046;-76
2023/07/10 01:39:45;;;;;;;3.65;2.75;;;25.10;58.40;;;;;;4939168;28;20039;-75
2023/07/10 01:42:11;;;;;;;4.72;2.90;;;25.10;58.40;;;;;;4954666;28;20094;-76
2023/07/10 01:44:40;;;;;;;3.63;2.60;;;25.10;58.50;;;;;;4938724;28;20086;-76
2023/07/10 01:47:07;;;;;;;3.70;2.45;;;25.10;58.50;;;;;;4956361;28;20065;-75
2023/07/10 01:49:51;;;;;;;2.85;2.10;;;25.10;58.60;;;;;;4954256;28;20024;-75
2023/07/10 01:52:19;;;;;;;3.92;2.20;;;25.10;58.60;;;;;;4955951;28;20038;-75
2023/07/10 01:54:45;;;;;;;4.65;2.47;;;25.10;58.50;;;;;;4955767;28;20032;-76
2023/07/10 01:57:12;;;;;;;3.72;2.53;;;25.00;58.50;;;;;;4938729;29;20037;-75
2023/07/10 01:59:38;;;;;;;4.07;2.30;;;25.00;58.60;;;;;;4954323;29;20051;-75
2023/07/10 02:02:05;;;;;;;2.92;2.00;;;25.00;58.60;;;;;;4938686;28;20499;-75
2023/07/10 02:04:31;;;;;;;3.05;2.13;;;25.00;58.60;;;;;;4954956;29;20042;-75
2023/07/10 02:06:57;;;;;;;2.78;2.03;;;24.90;58.60;;;;;;4938608;29;20039;-76
2023/07/10 02:09:24;;;;;;;3.97;2.25;;;24.90;58.60;;;;;;4938044;29;20038;-75
2023/07/10 02:11:51;;;;;;;3.83;2.45;;;24.90;58.70;;;;;;4954109;28;20040;-75
2023/07/10 02:14:17;;;;;;;3.55;2.20;;;24.90;58.70;;;;;;4938137;29;20066;-75
2023/07/10 02:16:43;;;;;;;3.05;2.10;;;24.80;58.70;;;;;;4954778;29;20139;-76
2023/07/10 02:19:10;;;;;;;3.45;2.22;;;24.80;58.70;;;;;;4937539;29;20031;-76
2023/07/10 02:21:35;;;;;;;3.15;2.10;;;24.80;58.70;;;;;;4954681;29;20040;-75
2023/07/10 02:24:01;;;;;;;2.90;1.98;;;24.80;58.80;;;;;;4954698;29;20511;-75
2023/07/10 02:26:29;;;;;;;3.45;2.10;;;24.80;58.90;;;;;;4955078;29;20067;-75
2023/07/10 02:28:57;;;;;;;3.78;2.30;;;24.80;58.90;;;;;;4954964;29;20432;-76
2023/07/10 02:31:22;;;;;;;2.97;1.65;;;24.80;58.90;;;;;;4954206;29;20035;-76
2023/07/10 02:33:49;;;;;;;3.53;1.95;;;24.70;58.90;;;;;;4938313;28;20118;-77
2023/07/10 02:36:15;;;;;;;2.67;1.85;;;24.70;58.90;;;;;;4954157;29;20089;-76
2023/07/10 02:38:42;;;;;;;2.63;1.80;;;24.70;59.00;;;;;;4953919;29;20154;-76
2023/07/10 02:41:08;;;;;;;2.50;1.88;;;24.70;59.00;;;;;;4953807;29;20436;-76
2023/07/10 02:43:34;;;;;;;3.00;1.80;;;24.70;59.00;;;;;;4955572;28;20040;-77
2023/07/10 02:46:01;;;;;;;2.92;1.85;;;24.70;59.00;;;;;;4953910;29;20031;-76
2023/07/10 02:48:28;;;;;;;1.77;1.52;;;24.60;59.00;;;;;;4954826;29;20559;-76
2023/07/10 02:50:53;;;;;;;2.60;1.65;;;24.60;59.10;;;;;;4937732;29;20163;-76
2023/07/10 02:53:19;;;;;;;2.20;1.60;;;24.60;59.10;;;;;;4937783;29;20039;-76
2023/07/10 02:55:45;;;;;;;2.83;1.65;;;24.60;59.40;;;;;;4955256;28;20027;-76
2023/07/10 02:58:11;;;;;;;2.33;1.55;;;24.60;59.10;;;;;;4942301;28;20428;-76
2023/07/10 03:00:37;;;;;;;2.95;1.80;;;24.50;59.10;;;;;;4957546;29;20039;-76
2023/07/10 03:03:02;;;;;;;2.00;1.45;;;24.50;59.10;;;;;;4957543;29;20445;-76
2023/07/10 03:05:28;;;;;;;2.35;1.63;;;24.50;59.10;;;;;;4957536;28;20059;-76
2023/07/10 03:07:54;;;;;;;2.88;1.88;;;24.50;59.20;;;;;;4957615;28;20036;-77
2023/07/10 03:10:20;;;;;;;2.95;1.67;;;24.50;59.20;;;;;;4941570;29;20032;-76
2023/07/10 03:12:47;;;;;;;1.70;1.48;;;24.50;59.20;;;;;;4957639;29;20491;-76
2023/07/10 03:15:13;;;;;;;1.80;1.60;;;24.40;59.80;;;;;;4941141;28;20027;-76
2023/07/10 03:17:39;;;;;;;2.60;1.73;;;24.40;59.20;;;;;;4941562;29;20467;-76
2023/07/10 03:20:06;;;;;;;2.90;1.70;;;24.40;59.20;;;;;;4957192;29;20452;-77
2023/07/10 03:22:33;;;;;;;2.10;1.75;;;24.40;59.30;;;;;;4941495;29;20431;-76
2023/07/10 03:24:59;;;;;;;2.25;1.67;;;24.40;59.30;;;;;;4941947;29;20055;-77
2023/07/10 03:27:27;;;;;;;2.80;1.73;;;24.40;59.40;;;;;;4941104;28;20036;-76
2023/07/10 03:29:53;;;;;;;1.70;1.42;;;24.30;59.30;;;;;;4941835;29;20046;-76
2023/07/10 03:32:19;;;;;;;2.83;1.52;;;24.30;59.30;;;;;;4957033;29;20123;-76
2023/07/10 03:34:47;;;;;;;2.47;1.60;;;24.30;59.30;;;;;;4941117;29;20027;-76
2023/07/10 03:37:14;;;;;;;2.17;1.55;;;24.30;59.40;;;;;;4941165;29;20503;-76
2023/07/10 03:39:40;;;;;;;2.25;1.38;;;24.30;59.50;;;;;;4958201;28;20085;-76
2023/07/10 03:42:06;;;;;;;2.70;1.50;;;24.20;59.40;;;;;;4940960;28;20499;-76
2023/07/10 03:44:32;;;;;;;3.13;1.77;;;24.20;59.50;;;;;;4940978;28;20051;-76
2023/07/10 03:46:57;;;;;;;5.25;1.73;;;24.20;59.50;;;;;;4940828;29;20035;-77
2023/07/10 03:49:25;;;;;;;2.10;1.50;;;24.20;59.50;;;;;;4957383;28;20268;-76
2023/07/10 03:51:50;;;;;;;3.15;1.70;;;24.20;59.50;;;;;;4956869;28;20039;-76
2023/07/10 03:54:17;;;;;;;2.05;1.50;;;24.20;59.50;;;;;;4956913;29;20042;-76
2023/07/10 03:56:43;;;;;;;2.47;1.70;;;24.20;59.60;;;;;;4956596;28;20035;-76
2023/07/10 03:59:09;;;;;;;1.73;1.42;;;24.10;59.50;;;;;;4957801;29;20035;-76
2023/07/10 04:01:35;;;;;;;1.77;1.48;;;24.20;59.60;;;;;;4940542;29;20491;-76
2023/07/10 04:04:01;;;;;;;2.28;1.58;;;24.10;59.60;;;;;;4956134;28;20031;-77
2023/07/10 04:06:27;;;;;;;2.17;1.52;;;24.10;59.60;;;;;;4940296;29;20054;-76
2023/07/10 04:08:53;;;;;;;2.38;1.67;;;24.10;59.60;;;;;;4956214;28;20039;-76
2023/07/10 04:11:21;;;;;;;2.20;1.70;;;24.10;59.60;;;;;;4956678;29;20039;-76
2023/07/10 04:13:50;;;;;;;2.17;1.65;;;24.00;59.60;;;;;;4957838;28;20086;-76
2023/07/10 04:16:18;;;;;;;2.35;1.75;;;24.00;59.60;;;;;;4940167;29;20027;-76
2023/07/10 04:18:45;;;;;;;2.58;1.95;;;24.00;59.60;;;;;;4957023;29;20031;-78
2023/07/10 04:21:15;;;;;;;4.40;1.80;;;24.00;59.60;;;;;;4956042;29;20043;-77
2023/07/10 04:23:41;;;;;;;3.20;1.70;;;24.00;59.70;;;;;;4957271;29;20027;-76
2023/07/10 04:26:24;;;;;;;2.75;1.80;;;24.00;59.70;;;;;;4956982;28;20114;-76
2023/07/10 04:28:53;;;;;;;2.10;1.55;;;24.00;59.80;;;;;;4956593;28;20073;-76
2023/07/10 04:31:20;;;;;;;2.40;1.83;;;24.00;59.70;;;;;;4955930;28;20047;-77
2023/07/10 04:33:46;;;;;;;2.83;1.80;;;23.90;59.70;;;;;;4956129;28;20035;-77
2023/07/10 04:36:12;;;;;;;2.83;2.00;;;23.90;59.80;;;;;;4956928;28;20102;-77
2023/07/10 04:38:38;;;;;;;2.85;2.00;;;23.90;59.70;;;;;;4939973;29;20130;-75
2023/07/10 04:41:06;;;;;;;2.60;1.67;;;23.90;59.80;;;;;;4940374;28;20555;-76
2023/07/10 04:43:34;;;;;;;3.00;1.90;;;23.90;59.80;;;;;;4955637;29;20122;-76
2023/07/10 04:46:02;;;;;;;3.10;1.95;;;23.80;59.80;;;;;;4955763;28;20030;-76
2023/07/10 04:48:29;;;;;;;3.05;1.85;;;23.80;59.80;;;;;;4956694;28;20038;-76
2023/07/10 04:50:57;;;;;;;1.73;1.60;;;23.80;59.80;;;;;;4939275;29;20126;-76
2023/07/10 04:53:23;;;;;;;2.38;1.67;;;23.80;59.90;;;;;;4955712;29;20495;-76
2023/07/10 04:55:51;;;;;;;2.83;2.03;;;23.80;59.80;;;;;;4955174;29;20361;-76
2023/07/10 04:58:18;;;;;;;2.65;1.83;;;23.80;59.80;;;;;;4939459;29;20122;-77
2023/07/10 05:00:44;;;;;;;2.60;1.58;;;23.80;59.90;;;;;;4939710;28;20503;-77
2023/07/10 05:03:10;;;;;;;3.13;1.80;;;23.80;59.90;;;;;;4939550;29;20033;-76
2023/07/10 05:05:36;;;;;;;1.83;1.45;;;23.80;59.90;;;;;;4956670;28;20039;-74
2023/07/10 05:08:02;;;;;;;2.92;1.80;;;23.80;59.90;;;;;;4956735;28;20034;-74
2023/07/10 05:10:28;;;;;;;2.92;1.80;;;23.70;59.80;;;;;;4954975;29;20458;-74
2023/07/10 05:12:54;;;;;;;2.90;1.90;;;23.70;59.80;;;;;;4956180;28;20035;-74
2023/07/10 05:15:20;;;;;;;2.75;1.60;;;23.70;59.90;;;;;;4956869;28;20113;-75
2023/07/10 05:17:47;;;;;;;3.03;1.67;;;23.70;59.90;;;;;;4940123;29;20122;-74
2023/07/10 05:20:13;;;;;;;2.70;1.70;;;23.70;59.90;;;;;;4955888;28;20031;-74
2023/07/10 05:22:40;;;;;;;1.90;1.40;;;23.70;59.90;;;;;;4954981;29;20031;-74
2023/07/10 05:25:05;;;;;;;2.08;1.50;;;23.70;59.90;;;;;;4955993;28;20035;-75
2023/07/10 05:27:31;;;;;;;2.30;1.45;;;23.60;59.90;;;;;;4956351;28;20078;-73
2023/07/10 05:29:57;;;;;;;1.73;1.40;;;23.60;59.90;;;;;;4939565;29;20035;-74
2023/07/10 05:32:23;;;;;;;2.40;1.55;;;23.60;59.80;;;;;;4955359;29;20493;-74
2023/07/10 05:34:49;;;;;;;1.63;1.38;;;23.60;59.80;;;;;;4956173;28;20027;-74
2023/07/10 05:37:14;;;;;;;1.67;1.35;;;23.60;59.90;;;;;;4954825;29;20035;-74
2023/07/10 05:39:40;;;;;;;1.92;1.27;;;23.60;59.90;;;;;;4956152;28;20027;-73
2023/07/10 05:42:07;;;;;;;3.10;1.77;;;23.60;59.80;;;;;;4954631;29;20031;-74
2023/07/10 05:44:33;;;;;;;1.65;1.30;;;23.60;59.90;;;;;;4955972;28;20467;-74
2023/07/10 05:46:58;;;;;;;2.55;1.48;;;23.60;59.90;;;;;;4955034;29;20035;-74
2023/07/10 05:49:24;;;;;;;2.33;1.63;;;23.60;59.90;;;;;;4954291;29;20028;-73
2023/07/10 05:51:52;;;;;;;2.75;1.80;;;23.60;60.50;;;;;;4956051;28;20043;-73
2023/07/10 05:54:21;;;;;;;2.28;1.50;;;23.60;59.90;;;;;;4938534;29;20031;-74
2023/07/10 05:56:47;;;;;;;2.20;1.40;;;23.50;59.90;;;;;;4954499;29;20500;-74
2023/07/10 05:59:15;;;;;;;2.85;1.80;;;23.50;59.90;;;;;;4954258;29;20023;-74
2023/07/10 06:01:41;;;;;;;2.22;1.60;;;23.60;60.00;;;;;;4938508;29;20043;-74
2023/07/10 06:04:07;;;;;;;2.40;1.58;;;23.50;59.90;;;;;;4955348;28;20408;-74
2023/07/10 06:06:33;;;;;;;2.63;1.33;;;23.50;59.90;;;;;;4955232;28;20472;-74
2023/07/10 06:08:59;;;;;;;2.53;1.60;;;23.50;59.90;;;;;;4954376;28;20027;-74
2023/07/10 06:11:24;;;;;;;2.28;1.50;;;23.50;59.90;;;;;;4938278;29;20039;-74
2023/07/10 06:13:50;;;;;;;2.15;1.55;;;23.50;59.90;;;;;;4955817;28;20031;-74
2023/07/10 06:16:16;;;;;;;2.30;1.60;;;23.50;59.90;;;;;;4954213;29;20174;-79
2023/07/10 06:18:42;;;;;;;2.28;1.40;;;23.50;59.90;;;;;;4938550;29;20031;-77
2023/07/10 06:21:09;;;;;;;2.42;1.40;;;23.50;60.00;;;;;;4954547;29;20035;-77
2023/07/10 06:23:35;;;;;;;2.33;1.40;;;23.50;60.00;;;;;;4954074;29;20449;-76
2023/07/10 06:26:01;;;;;;;2.53;1.52;;;23.50;59.90;;;;;;4953958;29;20129;-76
2023/07/10 06:28:30;;;;;;;2.40;1.48;;;23.50;59.90;;;;;;4953878;29;20496;-77
2023/07/10 06:31:01;;;;;;;2.08;1.50;;;23.50;60.00;;;;;;4937444;28;20035;-77
2023/07/10 06:33:29;;;;;;;2.40;1.52;;;23.50;60.00;;;;;;4955163;29;20143;-77
2023/07/10 06:35:55;;;;;;;2.45;1.50;;;23.50;59.90;;;;;;4953912;29;20031;-77
2023/07/10 06:38:21;;;;;;;2.92;1.30;;;23.50;59.90;;;;;;4954995;28;20469;-76
2023/07/10 06:40:48;;;;;;;2.33;1.30;;;23.50;59.90;;;;;;4938040;29;20067;-76
2023/07/10 06:43:15;;;;;;;1.88;1.25;;;23.50;60.00;;;;;;4955570;28;20043;-77
2023/07/10 06:45:43;;;;;;;2.47;1.48;;;23.40;59.90;;;;;;4938203;29;20023;-76
2023/07/10 06:48:09;;;;;;;1.77;1.42;;;23.40;59.90;;;;;;4955293;29;20031;-76
2023/07/10 06:50:35;;;;;;;1.58;1.20;;;23.40;59.90;;;;;;4953593;29;20130;-76
2023/07/10 06:53:00;;;;;;;2.05;1.30;;;23.40;59.90;;;;;;4938796;29;20095;-76
2023/07/10 06:55:26;;;;;;;2.13;1.38;;;23.50;59.90;;;;;;4954177;28;20034;-76
2023/07/10 06:57:52;;;;;;;1.75;1.30;;;23.40;59.80;;;;;;4953973;29;20068;-76
2023/07/10 07:00:19;;;;;;;1.98;1.20;;;23.40;59.90;;;;;;4955219;28;20043;-76
2023/07/10 07:02:44;;;;;;;1.73;1.05;;;23.50;59.90;;;;;;4955023;28;20031;-76
2023/07/10 07:05:10;;;;;;;2.05;1.33;;;23.50;59.90;;;;;;4954239;29;20353;-76
2023/07/10 07:07:37;;;;;;;2.05;1.30;;;23.50;59.90;;;;;;4937648;29;20039;-77
2023/07/10 07:10:05;;;;;;;1.98;1.35;;;23.50;59.90;;;;;;4954707;28;20059;-76
2023/07/10 07:12:32;;;;;;;1.67;1.17;;;23.50;59.90;;;;;;4953678;28;20110;-76
2023/07/10 07:14:57;;;;;;;1.48;1.27;;;23.50;59.90;;;;;;4954673;28;20137;-76
2023/07/10 07:17:23;;;;;;;2.90;1.55;;;23.50;59.90;;;;;;4953442;29;20062;-75
2023/07/10 07:19:49;;;;;;;1.48;1.00;;;23.50;59.80;;;;;;4953486;29;20122;-76
2023/07/10 07:22:15;;;;;;;2.20;1.23;;;23.40;59.80;;;;;;4953694;29;20498;-77
2023/07/10 07:24:41;;;;;;;2.10;1.10;;;23.50;59.80;;;;;;4953551;29;20112;-76
2023/07/10 07:27:06;;;;;;;1.00;1.00;;;23.50;59.80;;;;;;4954882;28;20031;-76
2023/07/10 07:29:32;;;;;;;0.90;0.82;;;23.50;59.70;;;;;;4937683;28;20035;-76
2023/07/10 07:31:59;;;;;;;1.00;0.90;;;23.50;59.60;;;;;;4955409;28;20051;-75
2023/07/10 07:34:24;;;;;;;1.92;1.10;;;23.50;59.60;;;;;;4937434;29;20036;-75
2023/07/10 07:36:51;;;;;;;1.00;0.90;;;23.50;59.50;;;;;;4953526;28;20101;-76
2023/07/10 07:39:20;;;;;;;1.55;1.20;;;23.60;59.50;;;;;;4954896;28;20497;-76
2023/07/10 07:41:46;;;;;;;1.58;1.02;;;23.60;59.40;;;;;;4953723;28;20027;-75
2023/07/10 07:44:12;;;;;;;1.65;1.15;;;23.60;59.40;;;;;;4956695;29;20035;-75
2023/07/10 07:46:38;;;;;;;2.35;1.13;;;23.70;59.30;;;;;;4957812;28;20503;-75
2023/07/10 07:49:04;;;;;;;1.95;1.10;;;23.70;59.20;;;;;;4941165;28;20039;-76
2023/07/10 07:51:30;;;;;;;2.65;1.50;;;23.80;59.20;;;;;;4956735;29;20492;-76
2023/07/10 07:54:09;;;;;;;2.72;1.20;;;23.80;59.10;;;;;;4940701;29;20046;-75
2023/07/10 07:56:35;;;;;;;1.83;1.00;;;23.80;59.00;;;;;;4958234;28;20031;-76
2023/07/10 07:59:01;;;;;;;2.42;1.17;;;23.90;58.90;;;;;;4956743;29;20038;-76
2023/07/10 08:01:27;;;;;;;1.10;0.90;;;24.00;58.80;;;;;;4957389;29;20464;-76
2023/07/10 08:03:52;;;;;;;1.42;1.00;;;24.00;58.70;;;;;;4957009;29;20392;-76
2023/07/10 08:06:19;;;;;;;1.77;1.13;;;24.10;58.60;;;;;;4956554;28;20126;-76
2023/07/10 08:08:45;;;;;;;1.33;1.00;;;24.10;58.50;;;;;;4956610;29;20086;-75
2023/07/10 08:11:11;;;;;;;0.88;0.88;;;24.20;58.40;;;;;;4956036;29;20050;-76
2023/07/10 08:13:37;;;;;;;1.50;1.00;;;24.30;58.40;;;;;;4956829;29;20454;-76
2023/07/10 08:16:03;;;;;;;2.83;1.23;;;24.30;58.20;;;;;;4957907;28;20027;-76
2023/07/10 08:18:29;;;;;;;2.45;1.20;;;24.40;58.10;;;;;;4956022;29;20129;-76
2023/07/10 08:21:05;;;;;;;1.63;1.08;;;24.40;58.00;;;;;;4940333;29;20039;-76
2023/07/10 08:23:32;;;;;;;1.42;1.02;;;24.50;58.10;;;;;;4956499;28;20042;-76
2023/07/10 08:25:57;;;;;;;1.90;1.00;;;24.60;57.90;;;;;;4940513;29;20035;-76
2023/07/10 08:28:23;;;;;;;1.10;0.90;;;24.60;57.80;;;;;;4956022;29;20131;-76
2023/07/10 08:30:49;;;;;;;2.33;1.20;;;24.70;57.70;;;;;;4956096;29;20089;-76
2023/07/10 08:33:14;;;;;;;1.98;1.10;;;24.80;57.70;;;;;;4956390;29;20042;-76
2023/07/10 08:35:40;;;;;;;1.17;0.98;;;24.80;57.50;;;;;;4940822;29;20041;-76
2023/07/10 08:38:06;;;;;;;1.58;0.95;;;24.90;57.50;;;;;;4940435;29;20118;-76
2023/07/10 08:40:35;;;;;;;1.55;0.98;;;25.00;57.40;;;;;;4957076;28;20038;-76
2023/07/10 08:43:27;;;;;;;1.30;0.80;;;25.10;57.40;;;;;;4940196;29;20101;-76
2023/07/10 08:46:07;;;;;;;1.48;0.98;;;25.10;57.30;;;;;;4955788;29;20078;-76
2023/07/10 08:48:55;;;;;;;1.90;1.17;;;25.20;57.10;;;;;;4940069;29;20345;-77
2023/07/10 08:51:21;;;;;;;2.05;1.00;;;25.30;57.00;;;;;;4938567;29;20114;-76
2023/07/10 08:54:12;;;;;;;1.50;1.08;;;25.40;56.90;;;;;;4954681;28;20043;-77
2023/07/10 08:56:55;;;;;;;1.08;0.93;;;25.40;56.90;;;;;;4957003;28;20047;-76
2023/07/10 08:59:26;;;;;;;1.67;1.00;;;25.50;56.80;;;;;;4939836;29;20376;-76
2023/07/10 09:01:54;;;;;;;1.83;1.10;;;25.60;56.80;;;;;;4939819;28;20452;-76
2023/07/10 09:04:21;;;;;;;1.00;0.85;;;25.70;56.70;;;;;;4957284;28;20051;-76
2023/07/10 09:06:51;;;;;;;1.65;1.10;;;25.80;56.70;;;;;;4939460;29;20521;-76
2023/07/10 09:09:43;;;;;;;2.05;0.82;;;25.80;56.60;;;;;;4956881;28;20499;-76
2023/07/10 09:12:14;;;;;;;2.42;1.20;;;25.90;56.60;;;;;;4957056;28;20071;-76
2023/07/10 09:14:58;;;;;;;1.52;1.10;;;26.00;56.50;;;;;;4956272;28;20074;-76
2023/07/10 09:17:28;;;;;;;;;;;26.10;56.50;;;;;;4955607;29;20130;-76
2023/07/10 09:19:57;;;;;;;0.93;0.80;;;26.10;56.10;;;;;;4956332;28;19957;-76
2023/07/10 09:22:23;;;;;;;1.30;0.85;;;26.20;56.00;;;;;;4956016;29;20039;-77
2023/07/10 09:24:49;;;;;;;1.70;0.95;;;26.30;56.20;;;;;;4957033;28;20035;-76
2023/07/10 09:27:15;;;;;;;1.67;1.02;;;26.40;56.20;;;;;;4939219;29;20424;-76
2023/07/10 09:29:43;;;;;;;1.30;1.10;;;26.50;56.20;;;;;;4957047;28;20041;-76
2023/07/10 09:32:16;;;;;;;1.92;0.88;;;26.50;56.10;;;;;;4954672;29;20102;-76
2023/07/10 09:34:48;;;;;;;1.52;0.90;;;26.60;56.10;;;;;;4955855;29;20039;-76
2023/07/10 09:37:18;;;;;;;2.97;1.02;;;26.70;56.10;;;;;;4954749;29;20061;-76
2023/07/10 09:39:44;;;;;;;1.27;0.90;;;26.70;56.00;;;;;;4956223;28;20032;-76
2023/07/10 09:42:26;;;;;;;1.08;0.95;;;26.80;55.90;;;;;;4955041;28;20034;-76
2023/07/10 09:44:54;;;;;;;2.25;1.08;;;26.90;56.60;;;;;;4954920;29;20039;-76
2023/07/10 09:47:23;;;;;;;3.10;1.20;;;26.90;55.80;;;;;;4939427;29;20027;-76
2023/07/10 09:49:57;;;;;;;2.72;1.05;;;27.00;55.80;;;;;;4938973;29;20185;-76
2023/07/10 09:52:30;;;;;;;1.88;1.10;;;27.10;55.80;;;;;;4954391;29;20054;-76
2023/07/10 09:54:59;;;;;;;0.90;0.80;;;27.20;55.80;;;;;;4954704;29;20055;-75
2023/07/10 09:57:26;;;;;;;2.05;1.00;;;27.20;55.70;;;;;;4956119;29;20042;-76
2023/07/10 09:59:54;;;;;;;2.10;0.93;;;27.30;55.70;;;;;;4955765;28;20032;-76
2023/07/10 10:02:26;;;;;;;1.50;1.05;;;27.40;55.70;;;;;;4938823;29;20496;-75
2023/07/10 10:05:10;;;;;;;1.88;0.90;;;27.40;55.60;;;;;;4938280;28;20031;-77
2023/07/10 10:07:41;;;;;;;1.33;0.80;;;27.50;55.70;;;;;;4938773;28;20042;-75
2023/07/10 10:10:21;;;;;;;1.85;1.00;;;27.50;55.50;;;;;;4955893;29;20030;-76
2023/07/10 10:13:12;;;;;;;0.90;0.75;;;27.60;55.50;;;;;;4955216;28;20047;-76
2023/07/10 10:16:06;;;;;;;1.35;0.95;;;27.70;55.40;;;;;;4955202;28;20027;-76
2023/07/10 10:18:53;;;;;;;1.05;0.93;;;27.80;55.40;;;;;;4955784;29;20023;-76
2023/07/10 10:21:21;;;;;;;0.90;0.80;;;27.80;55.30;;;;;;4954598;28;20421;-76
2023/07/10 10:23:49;;;;;;;1.27;0.80;;;27.90;55.30;;;;;;4938276;29;20452;-76
2023/07/10 10:26:18;;;;;;;3.30;1.00;;;28.00;55.30;;;;;;4955287;28;20356;-76
2023/07/10 10:29:04;;;;;;;1.58;1.02;;;28.00;55.20;;;;;;4954458;29;20039;-76
2023/07/10 10:31:41;;;;;;;1.42;1.00;;;28.10;55.20;;;;;;4955149;28;20039;-75
2023/07/10 10:34:10;;;;;;;2.03;0.90;;;28.20;55.70;;;;;;4954649;29;20407;-76
2023/07/10 10:36:54;;;;;;;3.72;1.05;;;28.30;55.10;;;;;;4938865;29;20038;-77
2023/07/10 10:39:35;;;;;;;1.45;1.00;;;28.40;55.00;;;;;;4954871;28;20384;-77
2023/07/10 10:42:12;;;;;;;1.88;0.80;;;28.50;55.00;;;;;;4955074;29;20090;-76
2023/07/10 10:45:24;;;;;;;1.65;1.00;;;28.50;54.90;;;;;;4954402;29;20038;-76
2023/07/10 10:48:10;;;;;;;2.03;1.00;;;28.60;55.00;;;;;;4898918;29;20028;-75
2023/07/10 10:50:54;;;;;;;1.17;0.82;;;28.70;54.90;;;;;;4898443;29;20498;-76
2023/07/10 10:53:43;;;;;;;2.35;1.30;;;28.70;54.80;;;;;;4941152;29;20047;-76
2023/07/10 10:56:16;;;;;;;1.35;0.93;;;28.80;54.80;;;;;;4953830;29;20055;-76
2023/07/10 10:59:08;;;;;;;2.60;1.20;;;28.90;54.80;;;;;;4954657;29;20036;-77
2023/07/10 11:02:01;;;;;;;1.42;0.75;;;28.90;54.80;;;;;;4953702;28;20042;-76
2023/07/10 11:04:42;;;;;;;1.77;1.08;;;29.10;54.90;;;;;;4936601;28;20047;-76
2023/07/10 11:07:11;;;;;;;1.58;0.90;;;29.10;54.80;;;;;;4953983;29;20046;-77
2023/07/10 11:09:44;;;;;;;1.48;1.10;;;29.10;54.90;;;;;;4953585;29;20033;-77
2023/07/10 11:12:25;;;;;;;1.85;0.90;;;29.20;55.00;;;;;;4954765;28;20045;-77
2023/07/10 11:14:56;;;;;;;2.13;0.85;;;29.20;55.00;;;;;;4955303;28;20074;-76
2023/07/10 11:17:23;;;;;;;1.48;0.73;;;29.30;55.10;;;;;;4955135;28;20039;-75
2023/07/10 11:19:50;;;;;;;1.27;0.93;;;29.30;55.10;;;;;;4957419;29;20031;-74
2023/07/10 11:22:22;;;;;;;1.80;1.08;;;29.30;55.10;;;;;;4957165;29;20070;-77
2023/07/10 11:24:49;;;;;;;1.23;0.90;;;29.30;55.30;;;;;;4958334;28;20023;-75
2023/07/10 11:27:21;;;;;;;1.55;1.00;;;29.40;55.30;;;;;;4958735;28;20031;-75
2023/07/10 11:29:55;;;;;;;1.75;1.00;;;29.30;55.30;;;;;;4941444;29;20035;-75
2023/07/10 11:32:26;;;;;;;2.25;1.10;;;29.40;55.30;;;;;;4957751;28;20039;-75
2023/07/10 11:34:55;;;;;;;2.15;0.90;;;29.40;55.40;;;;;;4941437;29;20531;-75
2023/07/10 11:37:35;;;;;;;2.00;1.08;;;29.40;55.40;;;;;;4957988;28;20035;-75
2023/07/10 11:40:23;;;;;;;1.42;0.73;;;29.40;55.40;;;;;;4957966;28;20478;-75
2023/07/10 11:42:50;;;;;;;2.00;1.00;;;29.40;55.50;;;;;;4940940;29;20070;-75
2023/07/10 11:45:16;;;;;;;2.85;0.93;;;29.40;55.40;;;;;;4957966;28;20027;-75
2023/07/10 11:47:46;;;;;;;2.08;1.00;;;29.40;55.50;;;;;;4958312;29;20035;-75
2023/07/10 11:50:14;;;;;;;2.20;1.20;;;29.40;55.50;;;;;;4958496;28;20050;-75
2023/07/10 11:52:41;;;;;;;2.25;0.98;;;29.40;55.50;;;;;;4956384;29;20058;-76
2023/07/10 11:55:12;;;;;;;1.58;1.05;;;29.40;55.50;;;;;;4956893;29;20039;-77
2023/07/10 11:57:38;;;;;;;2.35;0.90;;;29.40;55.50;;;;;;4941023;29;20033;-77
2023/07/10 12:00:24;;;;;;;0.85;0.80;;;29.40;55.50;;;;;;4956517;29;20480;-76
2023/07/10 12:02:53;;;;;;;1.48;0.77;;;29.40;55.60;;;;;;4956639;28;20083;-76
2023/07/10 12:05:22;;;;;;;1.50;0.80;;;29.50;55.60;;;;;;4956409;29;20114;-76
2023/07/10 12:08:09;;;;;;;2.72;1.05;;;29.40;55.50;;;;;;4957994;29;20027;-76
2023/07/10 12:10:50;;;;;;;2.25;1.00;;;29.50;55.60;;;;;;4957715;28;20042;-76
2023/07/10 12:13:23;;;;;;;1.23;0.90;;;29.50;55.60;;;;;;4957749;28;20039;-76
2023/07/10 12:15:51;;;;;;;1.55;0.93;;;29.40;55.50;;;;;;4956535;28;20441;-76
2023/07/10 12:18:22;;;;;;;1.33;0.90;;;29.40;55.50;;;;;;4956666;29;20131;-76
2023/07/10 12:20:50;;;;;;;1.15;1.00;;;29.40;55.50;;;;;;4956560;29;20042;-75
2023/07/10 12:23:16;;;;;;;1.88;0.85;;;29.50;55.50;;;;;;4957773;28;20031;-77
2023/07/10 12:25:50;;;;;;;1.48;0.90;;;29.40;55.40;;;;;;4956090;29;20118;-75
2023/07/10 12:28:18;;;;;;;0.82;0.70;;;29.40;55.40;;;;;;4956604;28;20039;-74
2023/07/10 12:30:48;;;;;;;1.27;0.90;;;29.40;55.40;;;;;;4955257;29;20039;-75
2023/07/10 12:33:26;;;;;;;1.35;0.90;;;29.40;55.30;;;;;;4940328;29;20027;-77
2023/07/10 12:35:52;;;;;;;1.45;0.90;;;29.40;55.30;;;;;;4956926;28;20460;-76
2023/07/10 12:38:18;;;;;;;1.30;0.90;;;29.40;55.30;;;;;;4939899;28;20039;-74
2023/07/10 12:40:44;;;;;;;1.70;1.02;;;29.40;55.20;;;;;;4955715;29;20031;-75
2023/07/10 12:43:23;;;;;;;2.00;1.00;;;29.40;55.20;;;;;;4955919;29;20476;-75
2023/07/10 12:46:12;;;;;;;1.27;0.90;;;29.40;55.20;;;;;;4955729;29;20032;-76
2023/07/10 12:48:40;;;;;;;1.13;0.82;;;29.40;55.20;;;;;;4956011;29;20376;-76
2023/07/10 12:51:07;;;;;;;1.42;1.00;;;29.40;55.10;;;;;;4957006;28;20114;-76
2023/07/10 12:53:39;;;;;;;1.75;0.75;;;29.40;55.10;;;;;;4955593;29;20046;-76
2023/07/10 12:56:12;;;;;;;1.58;0.77;;;29.40;55.30;;;;;;4955991;29;20035;-76
2023/07/10 12:58:38;;;;;;;2.28;0.80;;;29.40;55.00;;;;;;4956560;29;20027;-76
2023/07/10 13:01:39;;;;;;;0.98;0.70;;;29.40;55.60;;;;;;4939670;29;20105;-76